sensor_id;sensor_type;location;lat;lon;timestamp;P1;durP1;ratioP1;P2;durP2;ratioP2
32032;SDS011;31720;52.638;9.216;2023-09-19T00:02:13;9.65;;;1.92;;
32032;SDS011;31720;52.638;9.216;2023-09-19T00:05:15;2.95;;;2.00;;
32032;SDS011;31720;52.638;9.216;2023-09-19T00:08:16;3.42;;;2.05;;
32032;SDS011;31720;52.638;9.216;2023-09-19T00:11:23;4.30;;;2.08;;
32032;SDS011;31720;52.638;9.216;2023-09-19T00:14:26;5.45;;;2.42;;
32032;SDS011;31720;52.638;9.216;2023-09-19T00:17:27;4.10;;;2.40;;
32032;SDS011;31720;52.638;9.216;2023-09-19T00:20:30;5.18;;;2.20;;
32032;SDS011;31720;52.638;9.216;2023-09-19T00:23:32;6.88;;;2.42;;
32032;SDS011;31720;52.638;9.216;2023-09-19T00:26:34;4.43;;;2.67;;
32032;SDS011;31720;52.638;9.216;2023-09-19T00:29:36;4.60;;;2.70;;
32032;SDS011;31720;52.638;9.216;2023-09-19T00:32:37;5.10;;;2.78;;
32032;SDS011;31720;52.638;9.216;2023-09-19T00:35:39;10.00;;;2.85;;
32032;SDS011;31720;52.638;9.216;2023-09-19T00:38:48;3.83;;;2.35;;
32032;SDS011;31720;52.638;9.216;2023-09-19T00:41:51;4.38;;;2.92;;
32032;SDS011;31720;52.638;9.216;2023-09-19T00:44:52;7.47;;;2.65;;
32032;SDS011;31720;52.638;9.216;2023-09-19T00:47:54;3.10;;;2.10;;
32032;SDS011;31720;52.638;9.216;2023-09-19T00:50:57;4.68;;;2.58;;
32032;SDS011;31720;52.638;9.216;2023-09-19T00:54:00;5.72;;;3.05;;
32032;SDS011;31720;52.638;9.216;2023-09-19T00:57:03;5.20;;;2.33;;
32032;SDS011;31720;52.638;9.216;2023-09-19T01:00:05;8.57;;;2.53;;
32032;SDS011;31720;52.638;9.216;2023-09-19T01:03:12;8.18;;;3.10;;
32032;SDS011;31720;52.638;9.216;2023-09-19T01:06:14;2.97;;;2.08;;
32032;SDS011;31720;52.638;9.216;2023-09-19T01:09:16;5.65;;;2.42;;
32032;SDS011;31720;52.638;9.216;2023-09-19T01:12:21;6.57;;;2.88;;
32032;SDS011;31720;52.638;9.216;2023-09-19T01:15:33;5.00;;;2.38;;
32032;SDS011;31720;52.638;9.216;2023-09-19T01:18:43;4.60;;;1.95;;
32032;SDS011;31720;52.638;9.216;2023-09-19T01:21:55;7.53;;;2.35;;
32032;SDS011;31720;52.638;9.216;2023-09-19T01:25:20;6.13;;;2.20;;
32032;SDS011;31720;52.638;9.216;2023-09-19T01:28:43;4.05;;;2.00;;
32032;SDS011;31720;52.638;9.216;2023-09-19T01:31:55;4.30;;;1.95;;
32032;SDS011;31720;52.638;9.216;2023-09-19T01:35:01;4.45;;;2.15;;
32032;SDS011;31720;52.638;9.216;2023-09-19T01:38:05;2.92;;;1.90;;
32032;SDS011;31720;52.638;9.216;2023-09-19T01:41:11;8.32;;;2.63;;
32032;SDS011;31720;52.638;9.216;2023-09-19T01:44:22;13.32;;;2.65;;
32032;SDS011;31720;52.638;9.216;2023-09-19T01:47:33;3.42;;;1.90;;
32032;SDS011;31720;52.638;9.216;2023-09-19T01:50:38;6.15;;;2.60;;
32032;SDS011;31720;52.638;9.216;2023-09-19T01:53:48;6.25;;;2.17;;
32032;SDS011;31720;52.638;9.216;2023-09-19T01:56:57;4.03;;;1.83;;
32032;SDS011;31720;52.638;9.216;2023-09-19T02:00:05;4.75;;;1.77;;
32032;SDS011;31720;52.638;9.216;2023-09-19T02:03:10;7.65;;;2.30;;
32032;SDS011;31720;52.638;9.216;2023-09-19T02:06:14;5.05;;;1.88;;
32032;SDS011;31720;52.638;9.216;2023-09-19T02:09:15;9.18;;;2.80;;
32032;SDS011;31720;52.638;9.216;2023-09-19T02:12:17;6.53;;;2.25;;
32032;SDS011;31720;52.638;9.216;2023-09-19T02:15:18;10.93;;;1.77;;
32032;SDS011;31720;52.638;9.216;2023-09-19T02:18:21;4.25;;;1.90;;
32032;SDS011;31720;52.638;9.216;2023-09-19T02:21:23;4.03;;;1.27;;
32032;SDS011;31720;52.638;9.216;2023-09-19T02:24:24;6.18;;;1.90;;
32032;SDS011;31720;52.638;9.216;2023-09-19T02:27:26;5.60;;;1.48;;
32032;SDS011;31720;52.638;9.216;2023-09-19T02:30:28;5.03;;;1.90;;
32032;SDS011;31720;52.638;9.216;2023-09-19T02:33:31;8.00;;;1.92;;
32032;SDS011;31720;52.638;9.216;2023-09-19T02:36:32;4.95;;;2.33;;
32032;SDS011;31720;52.638;9.216;2023-09-19T02:39:34;3.97;;;2.33;;
32032;SDS011;31720;52.638;9.216;2023-09-19T02:42:35;4.97;;;1.65;;
32032;SDS011;31720;52.638;9.216;2023-09-19T02:45:37;3.95;;;1.40;;
32032;SDS011;31720;52.638;9.216;2023-09-19T02:48:40;6.90;;;1.70;;
32032;SDS011;31720;52.638;9.216;2023-09-19T02:51:42;4.22;;;1.40;;
32032;SDS011;31720;52.638;9.216;2023-09-19T02:54:43;7.25;;;1.70;;
32032;SDS011;31720;52.638;9.216;2023-09-19T02:57:45;9.45;;;2.03;;
32032;SDS011;31720;52.638;9.216;2023-09-19T03:00:47;6.05;;;1.35;;
32032;SDS011;31720;52.638;9.216;2023-09-19T03:03:51;5.25;;;1.98;;
32032;SDS011;31720;52.638;9.216;2023-09-19T03:06:53;6.05;;;1.92;;
32032;SDS011;31720;52.638;9.216;2023-09-19T03:09:58;7.07;;;2.22;;
32032;SDS011;31720;52.638;9.216;2023-09-19T03:13:00;7.53;;;2.03;;
32032;SDS011;31720;52.638;9.216;2023-09-19T03:16:02;4.88;;;1.52;;
32032;SDS011;31720;52.638;9.216;2023-09-19T03:19:07;14.82;;;2.38;;
32032;SDS011;31720;52.638;9.216;2023-09-19T03:22:10;4.53;;;2.38;;
32032;SDS011;31720;52.638;9.216;2023-09-19T03:25:12;10.63;;;1.67;;
32032;SDS011;31720;52.638;9.216;2023-09-19T03:28:14;8.18;;;1.52;;
32032;SDS011;31720;52.638;9.216;2023-09-19T03:31:16;3.65;;;1.40;;
32032;SDS011;31720;52.638;9.216;2023-09-19T03:34:19;3.75;;;1.58;;
32032;SDS011;31720;52.638;9.216;2023-09-19T03:37:20;2.50;;;1.17;;
32032;SDS011;31720;52.638;9.216;2023-09-19T03:40:22;7.00;;;1.70;;
32032;SDS011;31720;52.638;9.216;2023-09-19T03:43:25;6.88;;;1.30;;
32032;SDS011;31720;52.638;9.216;2023-09-19T03:46:26;9.50;;;1.58;;
32032;SDS011;31720;52.638;9.216;2023-09-19T03:49:29;3.35;;;1.17;;
32032;SDS011;31720;52.638;9.216;2023-09-19T03:52:31;4.25;;;1.33;;
32032;SDS011;31720;52.638;9.216;2023-09-19T03:55:32;9.35;;;2.28;;
32032;SDS011;31720;52.638;9.216;2023-09-19T03:58:35;10.65;;;1.27;;
32032;SDS011;31720;52.638;9.216;2023-09-19T04:01:39;1.90;;;1.20;;
32032;SDS011;31720;52.638;9.216;2023-09-19T04:04:42;6.35;;;1.23;;
32032;SDS011;31720;52.638;9.216;2023-09-19T04:07:44;8.95;;;2.42;;
32032;SDS011;31720;52.638;9.216;2023-09-19T04:10:45;6.32;;;1.70;;
32032;SDS011;31720;52.638;9.216;2023-09-19T04:13:47;5.35;;;1.73;;
32032;SDS011;31720;52.638;9.216;2023-09-19T04:16:49;5.35;;;1.90;;
32032;SDS011;31720;52.638;9.216;2023-09-19T04:19:51;5.55;;;1.95;;
32032;SDS011;31720;52.638;9.216;2023-09-19T04:22:53;3.67;;;1.38;;
32032;SDS011;31720;52.638;9.216;2023-09-19T04:25:54;4.97;;;1.48;;
32032;SDS011;31720;52.638;9.216;2023-09-19T04:28:57;8.73;;;1.50;;
32032;SDS011;31720;52.638;9.216;2023-09-19T04:31:58;4.35;;;1.08;;
32032;SDS011;31720;52.638;9.216;2023-09-19T04:35:01;4.70;;;1.38;;
32032;SDS011;31720;52.638;9.216;2023-09-19T04:38:06;7.28;;;2.15;;
32032;SDS011;31720;52.638;9.216;2023-09-19T04:41:07;4.53;;;1.52;;
32032;SDS011;31720;52.638;9.216;2023-09-19T04:44:08;6.25;;;1.50;;
32032;SDS011;31720;52.638;9.216;2023-09-19T04:47:10;3.72;;;1.48;;
32032;SDS011;31720;52.638;9.216;2023-09-19T04:50:13;3.30;;;1.30;;
32032;SDS011;31720;52.638;9.216;2023-09-19T04:53:15;6.90;;;1.40;;
32032;SDS011;31720;52.638;9.216;2023-09-19T04:56:17;4.93;;;1.95;;
32032;SDS011;31720;52.638;9.216;2023-09-19T04:59:21;2.20;;;1.25;;
32032;SDS011;31720;52.638;9.216;2023-09-19T05:02:23;5.30;;;1.98;;
32032;SDS011;31720;52.638;9.216;2023-09-19T05:05:25;3.45;;;1.35;;
32032;SDS011;31720;52.638;9.216;2023-09-19T05:08:28;8.45;;;1.60;;
32032;SDS011;31720;52.638;9.216;2023-09-19T05:11:29;6.50;;;2.03;;
32032;SDS011;31720;52.638;9.216;2023-09-19T05:14:31;5.47;;;1.58;;
32032;SDS011;31720;52.638;9.216;2023-09-19T05:17:32;12.27;;;1.75;;
32032;SDS011;31720;52.638;9.216;2023-09-19T05:20:35;3.13;;;1.60;;
32032;SDS011;31720;52.638;9.216;2023-09-19T05:23:39;8.32;;;1.75;;
32032;SDS011;31720;52.638;9.216;2023-09-19T05:26:41;6.78;;;1.85;;
32032;SDS011;31720;52.638;9.216;2023-09-19T05:29:42;5.82;;;1.85;;
32032;SDS011;31720;52.638;9.216;2023-09-19T05:32:44;6.30;;;2.53;;
32032;SDS011;31720;52.638;9.216;2023-09-19T05:35:49;6.03;;;1.88;;
32032;SDS011;31720;52.638;9.216;2023-09-19T05:38:51;10.30;;;2.40;;
32032;SDS011;31720;52.638;9.216;2023-09-19T05:41:53;8.30;;;2.28;;
32032;SDS011;31720;52.638;9.216;2023-09-19T05:44:57;5.85;;;2.25;;
32032;SDS011;31720;52.638;9.216;2023-09-19T05:48:06;10.98;;;2.03;;
32032;SDS011;31720;52.638;9.216;2023-09-19T05:51:10;7.40;;;2.00;;
32032;SDS011;31720;52.638;9.216;2023-09-19T05:54:11;7.15;;;2.10;;
32032;SDS011;31720;52.638;9.216;2023-09-19T05:57:13;11.70;;;2.97;;
32032;SDS011;31720;52.638;9.216;2023-09-19T06:00:15;7.97;;;2.35;;
32032;SDS011;31720;52.638;9.216;2023-09-19T06:03:18;7.78;;;2.67;;
32032;SDS011;31720;52.638;9.216;2023-09-19T06:06:21;11.32;;;2.90;;
32032;SDS011;31720;52.638;9.216;2023-09-19T06:09:24;7.32;;;2.83;;
32032;SDS011;31720;52.638;9.216;2023-09-19T06:12:27;6.60;;;1.95;;
32032;SDS011;31720;52.638;9.216;2023-09-19T06:15:30;7.18;;;1.98;;
32032;SDS011;31720;52.638;9.216;2023-09-19T06:18:33;2.83;;;1.67;;
32032;SDS011;31720;52.638;9.216;2023-09-19T06:21:36;11.45;;;2.67;;
32032;SDS011;31720;52.638;9.216;2023-09-19T06:24:37;7.68;;;2.88;;
32032;SDS011;31720;52.638;9.216;2023-09-19T06:27:39;5.95;;;1.70;;
32032;SDS011;31720;52.638;9.216;2023-09-19T06:30:42;7.90;;;1.95;;
32032;SDS011;31720;52.638;9.216;2023-09-19T06:33:44;7.07;;;2.17;;
32032;SDS011;31720;52.638;9.216;2023-09-19T06:36:47;4.97;;;1.33;;
32032;SDS011;31720;52.638;9.216;2023-09-19T06:39:49;8.40;;;1.58;;
32032;SDS011;31720;52.638;9.216;2023-09-19T06:42:51;11.38;;;1.88;;
32032;SDS011;31720;52.638;9.216;2023-09-19T06:45:54;5.97;;;1.38;;
32032;SDS011;31720;52.638;9.216;2023-09-19T06:48:56;5.63;;;1.85;;
32032;SDS011;31720;52.638;9.216;2023-09-19T06:51:58;5.72;;;1.40;;
32032;SDS011;31720;52.638;9.216;2023-09-19T06:55:00;4.93;;;1.60;;
32032;SDS011;31720;52.638;9.216;2023-09-19T06:58:03;6.55;;;1.40;;
32032;SDS011;31720;52.638;9.216;2023-09-19T07:01:06;8.15;;;1.50;;
32032;SDS011;31720;52.638;9.216;2023-09-19T07:04:07;7.97;;;1.40;;
32032;SDS011;31720;52.638;9.216;2023-09-19T07:07:10;9.70;;;1.23;;
32032;SDS011;31720;52.638;9.216;2023-09-19T07:10:12;5.60;;;1.50;;
32032;SDS011;31720;52.638;9.216;2023-09-19T07:13:14;5.47;;;1.23;;
32032;SDS011;31720;52.638;9.216;2023-09-19T07:16:17;5.50;;;1.17;;
32032;SDS011;31720;52.638;9.216;2023-09-19T07:19:27;5.70;;;1.15;;
32032;SDS011;31720;52.638;9.216;2023-09-19T07:22:31;9.73;;;1.63;;
32032;SDS011;31720;52.638;9.216;2023-09-19T07:25:32;2.47;;;1.15;;
32032;SDS011;31720;52.638;9.216;2023-09-19T07:28:36;12.13;;;2.13;;
32032;SDS011;31720;52.638;9.216;2023-09-19T07:31:38;7.18;;;1.25;;
32032;SDS011;31720;52.638;9.216;2023-09-19T07:34:39;4.05;;;1.88;;
32032;SDS011;31720;52.638;9.216;2023-09-19T07:37:42;5.65;;;1.55;;
32032;SDS011;31720;52.638;9.216;2023-09-19T07:40:44;7.03;;;1.20;;
32032;SDS011;31720;52.638;9.216;2023-09-19T07:43:45;6.40;;;1.25;;
32032;SDS011;31720;52.638;9.216;2023-09-19T07:46:47;3.70;;;1.00;;
32032;SDS011;31720;52.638;9.216;2023-09-19T07:49:50;8.32;;;1.35;;
32032;SDS011;31720;52.638;9.216;2023-09-19T07:52:53;7.95;;;1.08;;
32032;SDS011;31720;52.638;9.216;2023-09-19T07:56:01;5.07;;;1.27;;
32032;SDS011;31720;52.638;9.216;2023-09-19T07:59:04;7.90;;;1.45;;
32032;SDS011;31720;52.638;9.216;2023-09-19T08:02:05;5.15;;;1.08;;
32032;SDS011;31720;52.638;9.216;2023-09-19T08:05:08;10.65;;;1.05;;
32032;SDS011;31720;52.638;9.216;2023-09-19T08:08:12;7.30;;;1.33;;
32032;SDS011;31720;52.638;9.216;2023-09-19T08:11:14;7.03;;;1.17;;
32032;SDS011;31720;52.638;9.216;2023-09-19T08:14:21;4.05;;;0.65;;
32032;SDS011;31720;52.638;9.216;2023-09-19T08:17:24;4.90;;;1.20;;
32032;SDS011;31720;52.638;9.216;2023-09-19T08:20:25;10.13;;;1.30;;
32032;SDS011;31720;52.638;9.216;2023-09-19T08:23:28;5.95;;;1.17;;
32032;SDS011;31720;52.638;9.216;2023-09-19T08:26:32;3.75;;;1.33;;
32032;SDS011;31720;52.638;9.216;2023-09-19T08:29:33;5.90;;;0.75;;
32032;SDS011;31720;52.638;9.216;2023-09-19T08:32:35;6.78;;;1.52;;
32032;SDS011;31720;52.638;9.216;2023-09-19T08:35:37;3.28;;;1.10;;
32032;SDS011;31720;52.638;9.216;2023-09-19T08:38:41;10.45;;;1.60;;
32032;SDS011;31720;52.638;9.216;2023-09-19T08:41:42;6.13;;;1.35;;
32032;SDS011;31720;52.638;9.216;2023-09-19T08:44:43;3.75;;;0.93;;
32032;SDS011;31720;52.638;9.216;2023-09-19T08:47:46;2.17;;;0.75;;
32032;SDS011;31720;52.638;9.216;2023-09-19T08:50:56;3.58;;;1.40;;
32032;SDS011;31720;52.638;9.216;2023-09-19T08:54:06;8.15;;;1.20;;
32032;SDS011;31720;52.638;9.216;2023-09-19T08:57:09;4.95;;;1.15;;
32032;SDS011;31720;52.638;9.216;2023-09-19T09:00:12;6.65;;;1.20;;
32032;SDS011;31720;52.638;9.216;2023-09-19T09:03:17;6.85;;;0.70;;
32032;SDS011;31720;52.638;9.216;2023-09-19T09:06:21;5.60;;;1.00;;
32032;SDS011;31720;52.638;9.216;2023-09-19T09:09:25;4.05;;;0.77;;
32032;SDS011;31720;52.638;9.216;2023-09-19T09:12:29;5.60;;;1.17;;
32032;SDS011;31720;52.638;9.216;2023-09-19T09:15:31;3.17;;;1.00;;
32032;SDS011;31720;52.638;9.216;2023-09-19T09:18:36;6.35;;;1.20;;
32032;SDS011;31720;52.638;9.216;2023-09-19T09:21:38;13.50;;;1.30;;
32032;SDS011;31720;52.638;9.216;2023-09-19T09:24:51;7.15;;;1.17;;
32032;SDS011;31720;52.638;9.216;2023-09-19T09:27:58;11.63;;;1.67;;
32032;SDS011;31720;52.638;9.216;2023-09-19T09:31:01;7.32;;;1.77;;
32032;SDS011;31720;52.638;9.216;2023-09-19T09:34:08;3.05;;;1.23;;
32032;SDS011;31720;52.638;9.216;2023-09-19T09:37:12;4.93;;;0.88;;
32032;SDS011;31720;52.638;9.216;2023-09-19T09:40:16;7.47;;;1.70;;
32032;SDS011;31720;52.638;9.216;2023-09-19T09:43:36;4.28;;;1.00;;
32032;SDS011;31720;52.638;9.216;2023-09-19T09:46:42;5.78;;;0.90;;
32032;SDS011;31720;52.638;9.216;2023-09-19T09:50:28;6.75;;;0.90;;
32032;SDS011;31720;52.638;9.216;2023-09-19T09:53:39;4.32;;;1.02;;
32032;SDS011;31720;52.638;9.216;2023-09-19T09:56:55;7.72;;;1.45;;
32032;SDS011;31720;52.638;9.216;2023-09-19T09:59:59;1.90;;;0.95;;
32032;SDS011;31720;52.638;9.216;2023-09-19T10:03:19;6.80;;;1.60;;
32032;SDS011;31720;52.638;9.216;2023-09-19T10:06:22;5.75;;;1.67;;
32032;SDS011;31720;52.638;9.216;2023-09-19T10:09:28;9.23;;;1.60;;
32032;SDS011;31720;52.638;9.216;2023-09-19T10:12:32;6.07;;;1.40;;
32032;SDS011;31720;52.638;9.216;2023-09-19T10:15:35;4.68;;;1.30;;
32032;SDS011;31720;52.638;9.216;2023-09-19T10:18:37;6.70;;;1.20;;
32032;SDS011;31720;52.638;9.216;2023-09-19T10:21:39;4.70;;;2.13;;
32032;SDS011;31720;52.638;9.216;2023-09-19T10:24:43;5.45;;;1.60;;
32032;SDS011;31720;52.638;9.216;2023-09-19T10:27:47;11.40;;;1.92;;
32032;SDS011;31720;52.638;9.216;2023-09-19T10:30:52;5.25;;;1.20;;
32032;SDS011;31720;52.638;9.216;2023-09-19T10:33:54;7.90;;;1.55;;
32032;SDS011;31720;52.638;9.216;2023-09-19T10:36:56;5.28;;;1.17;;
32032;SDS011;31720;52.638;9.216;2023-09-19T10:39:58;7.93;;;2.03;;
32032;SDS011;31720;52.638;9.216;2023-09-19T10:43:02;6.15;;;1.02;;
32032;SDS011;31720;52.638;9.216;2023-09-19T10:46:06;4.93;;;1.50;;
32032;SDS011;31720;52.638;9.216;2023-09-19T10:49:10;12.27;;;1.88;;
32032;SDS011;31720;52.638;9.216;2023-09-19T10:52:12;5.88;;;1.55;;
32032;SDS011;31720;52.638;9.216;2023-09-19T10:55:18;13.82;;;1.75;;
32032;SDS011;31720;52.638;9.216;2023-09-19T10:58:27;7.10;;;1.40;;
32032;SDS011;31720;52.638;9.216;2023-09-19T11:01:40;4.68;;;1.20;;
32032;SDS011;31720;52.638;9.216;2023-09-19T11:04:44;9.13;;;1.40;;
32032;SDS011;31720;52.638;9.216;2023-09-19T11:07:57;8.95;;;1.90;;
32032;SDS011;31720;52.638;9.216;2023-09-19T11:11:00;3.40;;;1.70;;
32032;SDS011;31720;52.638;9.216;2023-09-19T11:14:28;3.80;;;0.93;;
32032;SDS011;31720;52.638;9.216;2023-09-19T11:17:33;11.05;;;1.77;;
32032;SDS011;31720;52.638;9.216;2023-09-19T11:20:37;7.35;;;1.60;;
32032;SDS011;31720;52.638;9.216;2023-09-19T11:24:05;2.90;;;1.20;;
32032;SDS011;31720;52.638;9.216;2023-09-19T11:27:31;4.82;;;1.52;;
32032;SDS011;31720;52.638;9.216;2023-09-19T11:30:36;6.20;;;1.90;;
32032;SDS011;31720;52.638;9.216;2023-09-19T11:33:39;4.22;;;1.25;;
32032;SDS011;31720;52.638;9.216;2023-09-19T11:36:46;8.80;;;1.80;;
32032;SDS011;31720;52.638;9.216;2023-09-19T11:43:28;4.18;;;1.90;;
32032;SDS011;31720;52.638;9.216;2023-09-19T11:46:51;1.55;;;0.93;;
32032;SDS011;31720;52.638;9.216;2023-09-19T11:49:53;4.40;;;1.08;;
32032;SDS011;31720;52.638;9.216;2023-09-19T11:52:55;5.65;;;1.20;;
32032;SDS011;31720;52.638;9.216;2023-09-19T11:55:56;7.93;;;1.30;;
32032;SDS011;31720;52.638;9.216;2023-09-19T11:59:00;6.25;;;1.17;;
32032;SDS011;31720;52.638;9.216;2023-09-19T12:02:05;8.23;;;1.52;;
32032;SDS011;31720;52.638;9.216;2023-09-19T12:05:08;7.53;;;1.50;;
32032;SDS011;31720;52.638;9.216;2023-09-19T12:08:10;4.97;;;1.60;;
32032;SDS011;31720;52.638;9.216;2023-09-19T12:11:14;5.80;;;1.35;;
32032;SDS011;31720;52.638;9.216;2023-09-19T12:14:21;2.85;;;1.33;;
32032;SDS011;31720;52.638;9.216;2023-09-19T12:17:35;9.40;;;1.80;;
32032;SDS011;31720;52.638;9.216;2023-09-19T12:20:43;4.53;;;1.45;;
32032;SDS011;31720;52.638;9.216;2023-09-19T12:23:56;7.05;;;1.60;;
32032;SDS011;31720;52.638;9.216;2023-09-19T12:27:05;11.35;;;1.92;;
32032;SDS011;31720;52.638;9.216;2023-09-19T12:30:08;9.05;;;2.20;;
32032;SDS011;31720;52.638;9.216;2023-09-19T12:33:18;5.53;;;1.65;;
32032;SDS011;31720;52.638;9.216;2023-09-19T12:36:21;5.32;;;1.50;;
32032;SDS011;31720;52.638;9.216;2023-09-19T12:39:28;5.18;;;1.65;;
32032;SDS011;31720;52.638;9.216;2023-09-19T12:42:31;3.92;;;1.30;;
32032;SDS011;31720;52.638;9.216;2023-09-19T12:45:33;8.30;;;1.75;;
32032;SDS011;31720;52.638;9.216;2023-09-19T12:48:40;3.00;;;1.33;;
32032;SDS011;31720;52.638;9.216;2023-09-19T12:51:44;6.28;;;1.67;;
32032;SDS011;31720;52.638;9.216;2023-09-19T12:54:47;8.18;;;1.83;;
32032;SDS011;31720;52.638;9.216;2023-09-19T12:57:58;2.92;;;1.15;;
32032;SDS011;31720;52.638;9.216;2023-09-19T13:01:01;3.92;;;1.63;;
32032;SDS011;31720;52.638;9.216;2023-09-19T13:04:16;6.30;;;1.83;;
32032;SDS011;31720;52.638;9.216;2023-09-19T13:14:13;5.13;;;1.42;;
32032;SDS011;31720;52.638;9.216;2023-09-19T13:17:16;4.50;;;2.40;;
32032;SDS011;31720;52.638;9.216;2023-09-19T13:20:24;4.70;;;1.05;;
32032;SDS011;31720;52.638;9.216;2023-09-19T13:23:28;6.03;;;1.48;;
32032;SDS011;31720;52.638;9.216;2023-09-19T13:26:31;4.22;;;1.75;;
32032;SDS011;31720;52.638;9.216;2023-09-19T13:29:32;8.57;;;1.55;;
32032;SDS011;31720;52.638;9.216;2023-09-19T13:32:33;7.03;;;2.00;;
32032;SDS011;31720;52.638;9.216;2023-09-19T13:35:36;2.60;;;1.17;;
32032;SDS011;31720;52.638;9.216;2023-09-19T13:38:40;1.40;;;0.98;;
32032;SDS011;31720;52.638;9.216;2023-09-19T13:41:43;4.97;;;1.42;;
32032;SDS011;31720;52.638;9.216;2023-09-19T13:44:46;4.30;;;1.67;;
32032;SDS011;31720;52.638;9.216;2023-09-19T13:47:48;2.67;;;1.13;;
32032;SDS011;31720;52.638;9.216;2023-09-19T13:50:50;8.00;;;1.60;;
32032;SDS011;31720;52.638;9.216;2023-09-19T13:53:52;6.10;;;1.48;;
32032;SDS011;31720;52.638;9.216;2023-09-19T13:56:54;1.98;;;1.17;;
32032;SDS011;31720;52.638;9.216;2023-09-19T13:59:55;4.32;;;1.42;;
32032;SDS011;31720;52.638;9.216;2023-09-19T14:02:57;2.85;;;1.33;;
32032;SDS011;31720;52.638;9.216;2023-09-19T14:05:59;5.60;;;1.27;;
32032;SDS011;31720;52.638;9.216;2023-09-19T14:09:01;7.57;;;1.48;;
32032;SDS011;31720;52.638;9.216;2023-09-19T14:12:04;4.53;;;1.17;;
32032;SDS011;31720;52.638;9.216;2023-09-19T14:15:07;4.78;;;1.27;;
32032;SDS011;31720;52.638;9.216;2023-09-19T14:18:09;3.83;;;1.40;;
32032;SDS011;31720;52.638;9.216;2023-09-19T14:21:12;7.13;;;1.50;;
32032;SDS011;31720;52.638;9.216;2023-09-19T14:24:16;4.97;;;1.48;;
32032;SDS011;31720;52.638;9.216;2023-09-19T14:27:18;3.22;;;1.10;;
32032;SDS011;31720;52.638;9.216;2023-09-19T14:30:19;6.10;;;1.83;;
32032;SDS011;31720;52.638;9.216;2023-09-19T14:33:21;8.52;;;1.95;;
32032;SDS011;31720;52.638;9.216;2023-09-19T14:36:23;4.30;;;1.10;;
32032;SDS011;31720;52.638;9.216;2023-09-19T14:39:26;3.53;;;1.00;;
32032;SDS011;31720;52.638;9.216;2023-09-19T14:42:28;7.78;;;1.85;;
32032;SDS011;31720;52.638;9.216;2023-09-19T14:45:29;4.15;;;1.63;;
32032;SDS011;31720;52.638;9.216;2023-09-19T14:48:31;2.10;;;0.85;;
32032;SDS011;31720;52.638;9.216;2023-09-19T14:51:34;7.28;;;0.90;;
32032;SDS011;31720;52.638;9.216;2023-09-19T14:54:36;2.22;;;1.02;;
32032;SDS011;31720;52.638;9.216;2023-09-19T14:57:41;4.43;;;0.82;;
32032;SDS011;31720;52.638;9.216;2023-09-19T15:00:44;3.60;;;1.02;;
32032;SDS011;31720;52.638;9.216;2023-09-19T15:03:46;3.67;;;0.93;;
32032;SDS011;31720;52.638;9.216;2023-09-19T15:06:49;3.33;;;0.90;;
32032;SDS011;31720;52.638;9.216;2023-09-19T15:09:54;3.40;;;0.90;;
32032;SDS011;31720;52.638;9.216;2023-09-19T15:12:56;3.47;;;1.23;;
32032;SDS011;31720;52.638;9.216;2023-09-19T15:15:58;6.55;;;1.02;;
32032;SDS011;31720;52.638;9.216;2023-09-19T15:19:00;3.40;;;0.85;;
32032;SDS011;31720;52.638;9.216;2023-09-19T15:22:03;4.60;;;1.05;;
32032;SDS011;31720;52.638;9.216;2023-09-19T15:25:05;4.20;;;1.33;;
32032;SDS011;31720;52.638;9.216;2023-09-19T15:28:07;2.72;;;1.17;;
32032;SDS011;31720;52.638;9.216;2023-09-19T15:31:10;3.70;;;0.90;;
32032;SDS011;31720;52.638;9.216;2023-09-19T15:34:12;8.98;;;1.15;;
32032;SDS011;31720;52.638;9.216;2023-09-19T15:37:17;3.00;;;0.82;;
32032;SDS011;31720;52.638;9.216;2023-09-19T15:40:19;2.53;;;0.73;;
32032;SDS011;31720;52.638;9.216;2023-09-19T15:43:23;2.10;;;0.70;;
32032;SDS011;31720;52.638;9.216;2023-09-19T15:46:25;7.38;;;0.98;;
32032;SDS011;31720;52.638;9.216;2023-09-19T15:49:27;4.40;;;1.15;;
32032;SDS011;31720;52.638;9.216;2023-09-19T15:52:30;3.17;;;0.77;;
32032;SDS011;31720;52.638;9.216;2023-09-19T15:55:31;6.22;;;1.52;;
32032;SDS011;31720;52.638;9.216;2023-09-19T15:58:39;3.63;;;1.20;;
32032;SDS011;31720;52.638;9.216;2023-09-19T16:01:41;4.10;;;1.10;;
32032;SDS011;31720;52.638;9.216;2023-09-19T16:04:44;3.58;;;1.00;;
32032;SDS011;31720;52.638;9.216;2023-09-19T16:07:46;5.70;;;0.98;;
32032;SDS011;31720;52.638;9.216;2023-09-19T16:10:48;3.53;;;1.00;;
32032;SDS011;31720;52.638;9.216;2023-09-19T16:13:49;4.82;;;1.13;;
32032;SDS011;31720;52.638;9.216;2023-09-19T16:16:52;4.35;;;1.10;;
32032;SDS011;31720;52.638;9.216;2023-09-19T16:19:54;2.30;;;0.98;;
32032;SDS011;31720;52.638;9.216;2023-09-19T16:22:57;2.92;;;1.25;;
32032;SDS011;31720;52.638;9.216;2023-09-19T16:26:02;1.75;;;0.75;;
32032;SDS011;31720;52.638;9.216;2023-09-19T16:29:05;6.20;;;1.55;;
32032;SDS011;31720;52.638;9.216;2023-09-19T16:32:07;2.35;;;0.70;;
32032;SDS011;31720;52.638;9.216;2023-09-19T16:35:08;2.17;;;0.88;;
32032;SDS011;31720;52.638;9.216;2023-09-19T16:38:11;4.72;;;1.00;;
32032;SDS011;31720;52.638;9.216;2023-09-19T16:41:14;4.93;;;1.02;;
32032;SDS011;31720;52.638;9.216;2023-09-19T16:44:17;4.75;;;0.95;;
32032;SDS011;31720;52.638;9.216;2023-09-19T16:47:20;3.22;;;0.77;;
32032;SDS011;31720;52.638;9.216;2023-09-19T16:50:22;1.20;;;0.80;;
32032;SDS011;31720;52.638;9.216;2023-09-19T16:53:24;3.42;;;1.08;;
32032;SDS011;31720;52.638;9.216;2023-09-19T16:56:26;4.10;;;1.10;;
32032;SDS011;31720;52.638;9.216;2023-09-19T16:59:28;2.72;;;0.90;;
32032;SDS011;31720;52.638;9.216;2023-09-19T17:02:30;1.73;;;0.47;;
32032;SDS011;31720;52.638;9.216;2023-09-19T17:05:31;1.10;;;0.50;;
32032;SDS011;31720;52.638;9.216;2023-09-19T17:08:34;1.40;;;0.60;;
32032;SDS011;31720;52.638;9.216;2023-09-19T17:11:35;0.60;;;0.47;;
32032;SDS011;31720;52.638;9.216;2023-09-19T17:14:38;3.10;;;0.65;;
32032;SDS011;31720;52.638;9.216;2023-09-19T17:17:39;1.17;;;0.40;;
32032;SDS011;31720;52.638;9.216;2023-09-19T17:20:41;3.20;;;0.52;;
32032;SDS011;31720;52.638;9.216;2023-09-19T17:23:44;1.23;;;0.60;;
32032;SDS011;31720;52.638;9.216;2023-09-19T17:26:45;3.63;;;0.93;;
32032;SDS011;31720;52.638;9.216;2023-09-19T17:29:46;1.40;;;0.70;;
32032;SDS011;31720;52.638;9.216;2023-09-19T17:32:48;2.05;;;1.20;;
32032;SDS011;31720;52.638;9.216;2023-09-19T17:35:49;3.38;;;0.70;;
32032;SDS011;31720;52.638;9.216;2023-09-19T17:38:53;1.77;;;0.80;;
32032;SDS011;31720;52.638;9.216;2023-09-19T17:41:56;4.25;;;0.85;;
32032;SDS011;31720;52.638;9.216;2023-09-19T17:44:58;5.90;;;0.80;;
32032;SDS011;31720;52.638;9.216;2023-09-19T17:48:00;0.80;;;0.50;;
32032;SDS011;31720;52.638;9.216;2023-09-19T17:51:01;1.17;;;0.77;;
32032;SDS011;31720;52.638;9.216;2023-09-19T17:54:05;1.05;;;0.65;;
32032;SDS011;31720;52.638;9.216;2023-09-19T17:57:06;1.75;;;0.75;;
32032;SDS011;31720;52.638;9.216;2023-09-19T18:00:08;1.30;;;0.80;;
32032;SDS011;31720;52.638;9.216;2023-09-19T18:03:11;4.60;;;0.70;;
32032;SDS011;31720;52.638;9.216;2023-09-19T18:06:13;2.33;;;0.52;;
32032;SDS011;31720;52.638;9.216;2023-09-19T18:09:16;2.55;;;0.77;;
32032;SDS011;31720;52.638;9.216;2023-09-19T18:12:18;2.63;;;0.50;;
32032;SDS011;31720;52.638;9.216;2023-09-19T18:15:19;0.85;;;0.40;;
32032;SDS011;31720;52.638;9.216;2023-09-19T18:18:21;1.30;;;0.57;;
32032;SDS011;31720;52.638;9.216;2023-09-19T18:21:22;3.85;;;0.60;;
32032;SDS011;31720;52.638;9.216;2023-09-19T18:24:25;1.15;;;0.60;;
32032;SDS011;31720;52.638;9.216;2023-09-19T18:27:28;0.85;;;0.50;;
32032;SDS011;31720;52.638;9.216;2023-09-19T18:30:30;2.30;;;0.70;;
32032;SDS011;31720;52.638;9.216;2023-09-19T18:33:34;1.83;;;0.52;;
32032;SDS011;31720;52.638;9.216;2023-09-19T18:36:36;1.17;;;0.60;;
32032;SDS011;31720;52.638;9.216;2023-09-19T18:39:39;2.22;;;0.57;;